Time;durP1;ratioP1;P1;durP2;ratioP2;P2;SDS_P1;SDS_P2;PMS_P1;PMS_P2;Temp;Humidity;BMP_temperature;BMP_pressure;BME280_temperature;BME280_humidity;BME280_pressure;Samples;Min_cycle;Max_cycle;Signal;HPM_P1;HPM_P2
2023/09/25 00:00:32;;;;;;;5.85;2.20;;;;;;;6.23;100.00;97993.25;5005639;28;20481;-63
2023/09/25 00:03:00;;;;;;;5.85;2.33;;;;;;;6.25;100.00;97996.53;5005969;28;20123;-63
2023/09/25 00:05:28;;;;;;;4.85;2.10;;;;;;;6.25;100.00;97988.47;5005638;28;20512;-64
2023/09/25 00:07:55;;;;;;;6.57;2.25;;;;;;;6.29;100.00;97986.16;5009281;28;20037;-63
2023/09/25 00:10:23;;;;;;;5.22;2.15;;;;;;;6.26;100.00;97984.72;5005272;28;20137;-63
2023/09/25 00:12:49;;;;;;;4.20;1.83;;;;;;;6.25;100.00;97988.47;5005045;28;20541;-64
2023/09/25 00:15:16;;;;;;;5.28;1.98;;;;;;;6.26;100.00;97986.59;5005354;28;21338;-63
2023/09/25 00:17:43;;;;;;;6.90;2.00;;;;;;;6.23;100.00;97977.91;5008644;28;20833;-63
2023/09/25 00:20:10;;;;;;;6.32;2.95;;;;;;;6.27;100.00;97986.41;5005060;28;20455;-62
2023/09/25 00:22:38;;;;;;;4.72;2.40;;;;;;;6.28;100.00;97988.06;5005805;28;20550;-65
2023/09/25 00:25:05;;;;;;;7.27;2.30;;;;;;;6.28;100.00;97985.38;5005366;28;20054;-63
2023/09/25 00:27:34;;;;;;;4.85;2.33;;;;;;;6.19;100.00;97986.63;5006592;28;20614;-65
2023/09/25 00:30:04;;;;;;;5.88;2.03;;;;;;;6.12;100.00;97978.56;5005087;28;20617;-65
2023/09/25 00:32:30;;;;;;;4.45;1.80;;;;;;;6.06;100.00;97980.22;5000585;28;20045;-64
2023/09/25 00:34:58;;;;;;;8.30;2.60;;;;;;;5.94;100.00;97977.28;4987566;28;20430;-65
2023/09/25 00:37:25;;;;;;;5.55;2.75;;;;;;;6.10;100.00;97975.25;4986428;28;20038;-62
2023/09/25 00:39:52;;;;;;;7.18;2.55;;;;;;;6.13;100.00;97977.53;5005135;28;20513;-65
2023/09/25 00:42:18;;;;;;;4.85;2.03;;;;;;;6.18;100.00;97974.19;5004236;28;20038;-62
2023/09/25 00:44:45;;;;;;;7.15;2.13;;;;;;;6.05;100.00;97977.72;5007543;28;20038;-63
2023/09/25 00:47:11;;;;;;;3.88;1.95;;;;;;;6.16;100.00;97976.28;5004919;28;20123;-65
2023/09/25 00:49:38;;;;;;;4.45;2.20;;;;;;;6.19;100.00;97971.28;5005538;28;20040;-64
2023/09/25 00:52:05;;;;;;;5.95;2.58;;;;;;;6.17;100.00;97975.22;5004369;28;20048;-63
2023/09/25 00:54:33;;;;;;;4.53;2.00;;;;;;;6.13;100.00;97976.69;4988007;28;20077;-63
2023/09/25 00:57:08;;;;;;;5.53;1.88;;;;;;;6.21;100.00;97971.09;4988647;28;20463;-64
2023/09/25 00:59:39;;;;;;;3.75;1.95;;;;;;;5.98;100.00;97970.44;4987577;28;20128;-63
2023/09/25 01:02:06;;;;;;;5.47;2.05;;;;;;;6.01;100.00;97976.47;5003946;28;20034;-65
2023/09/25 01:04:32;;;;;;;4.75;2.00;;;;;;;6.05;100.00;97978.53;5004760;28;20121;-64
2023/09/25 01:07:00;;;;;;;4.95;2.00;;;;;;;5.97;100.00;97968.00;5004996;28;20529;-63
2023/09/25 01:09:27;;;;;;;6.32;2.80;;;;;;;5.86;100.00;97967.56;5004443;28;20053;-63
2023/09/25 01:11:54;;;;;;;4.13;2.30;;;;;;;5.80;100.00;97963.03;5005095;28;20528;-65
2023/09/25 01:14:21;;;;;;;6.93;2.50;;;;;;;5.83;100.00;97962.59;5004067;28;20068;-63
2023/09/25 01:16:47;;;;;;;5.75;1.98;;;;;;;5.78;100.00;97962.38;5005261;28;20038;-63
2023/09/25 01:19:14;;;;;;;5.78;2.67;;;;;;;5.71;100.00;97959.69;5003338;28;20173;-65
2023/09/25 01:21:47;;;;;;;6.85;2.33;;;;;;;5.72;100.00;97960.53;5005114;28;20042;-64
2023/09/25 01:24:13;;;;;;;4.20;2.25;;;;;;;5.72;100.00;97960.53;5002411;28;20124;-65
2023/09/25 01:26:40;;;;;;;6.20;2.53;;;;;;;5.82;100.00;97960.13;4987703;28;20038;-64
2023/09/25 01:29:06;;;;;;;4.50;2.00;;;;;;;5.73;100.00;97956.81;5005354;28;20519;-65
2023/09/25 01:31:33;;;;;;;4.55;2.00;;;;;;;5.62;100.00;97965.47;4995936;28;20041;-63
2023/09/25 01:34:00;;;;;;;4.93;2.15;;;;;;;5.52;100.00;97972.06;5003627;28;20045;-64
2023/09/25 01:36:26;;;;;;;5.80;2.20;;;;;;;5.57;100.00;97964.22;4987100;28;20072;-65
2023/09/25 01:38:53;;;;;;;6.32;2.00;;;;;;;5.65;100.00;97959.69;5004763;28;20057;-63
2023/09/25 01:41:19;;;;;;;5.05;2.20;;;;;;;5.64;100.00;97955.38;4985584;28;20076;-63
2023/09/25 01:43:46;;;;;;;3.70;1.88;;;;;;;5.67;100.00;97957.63;5006889;28;20112;-64
2023/09/25 01:46:14;;;;;;;4.90;2.40;;;;;;;5.57;100.00;97958.03;4986047;28;20046;-63
2023/09/25 01:48:40;;;;;;;3.50;1.88;;;;;;;5.49;100.00;97956.38;5004147;28;20053;-64
2023/09/25 01:51:09;;;;;;;5.38;2.20;;;;;;;5.58;100.00;97960.53;5006633;28;20440;-64
2023/09/25 01:53:36;;;;;;;4.20;1.95;;;;;;;5.74;100.00;97958.47;5003683;28;20069;-63
2023/09/25 01:56:12;;;;;;;3.72;1.80;;;;;;;5.76;100.00;97959.09;5004236;28;20042;-64
2023/09/25 01:58:41;;;;;;;3.75;1.85;;;;;;;5.79;100.00;97950.59;5003708;28;20409;-65
2023/09/25 02:01:09;;;;;;;4.50;1.98;;;;;;;5.63;100.00;97949.16;5001764;28;20402;-64
2023/09/25 02:03:36;;;;;;;5.57;2.50;;;;;;;5.53;100.00;97951.44;5003847;28;20072;-63
2023/09/25 02:06:04;;;;;;;4.10;1.80;;;;;;;5.18;100.00;97953.22;4986458;28;20084;-64
2023/09/25 02:08:31;;;;;;;4.53;2.30;;;;;;;5.10;100.00;97957.94;5003814;28;20120;-63
2023/09/25 02:10:58;;;;;;;4.38;2.13;;;;;;;5.01;100.00;97952.75;4986692;28;20088;-63
2023/09/25 02:13:25;;;;;;;5.45;2.17;;;;;;;5.08;100.00;97948.25;5002792;28;20037;-63
2023/09/25 02:15:52;;;;;;;3.97;1.83;;;;;;;5.06;100.00;97952.97;5004682;28;20050;-64
2023/09/25 02:18:18;;;;;;;3.75;2.10;;;;;;;5.29;100.00;97951.81;5002323;28;20153;-64
2023/09/25 02:20:46;;;;;;;4.72;2.10;;;;;;;5.40;100.00;97947.69;4986738;28;20062;-63
2023/09/25 02:23:12;;;;;;;5.40;2.28;;;;;;;5.46;100.00;97938.00;5001097;28;20121;-64
2023/09/25 02:25:39;;;;;;;3.90;1.90;;;;;;;5.40;100.00;97938.78;5004187;28;20072;-65
2023/09/25 02:28:06;;;;;;;7.65;2.30;;;;;;;5.40;100.00;97939.63;5003916;28;20124;-64
2023/09/25 02:30:33;;;;;;;4.88;2.20;;;;;;;5.20;100.00;97942.28;4996976;28;20042;-64
2023/09/25 02:32:59;;;;;;;4.25;1.98;;;;;;;5.12;100.00;97937.09;4984809;28;20046;-65
2023/09/25 02:35:26;;;;;;;4.50;2.15;;;;;;;5.16;100.00;97935.66;5002673;28;20125;-63
2023/09/25 02:37:53;;;;;;;6.43;2.20;;;;;;;5.16;100.00;97947.22;5003622;28;20095;-64
2023/09/25 02:40:20;;;;;;;4.88;2.03;;;;;;;5.29;100.00;97949.13;5002798;28;20161;-64
2023/09/25 02:42:46;;;;;;;6.55;2.00;;;;;;;5.44;100.00;97938.19;4990666;28;20447;-63
2023/09/25 02:45:14;;;;;;;3.75;1.75;;;;;;;5.62;100.00;97935.91;5003278;28;20060;-63
2023/09/25 02:47:41;;;;;;;4.18;1.90;;;;;;;5.59;100.00;97923.72;5003765;28;20453;-63
2023/09/25 02:50:08;;;;;;;5.25;2.35;;;;;;;5.36;100.00;97927.66;5002128;28;20081;-63
2023/09/25 02:52:35;;;;;;;5.65;1.88;;;;;;;5.19;100.00;97930.72;5004165;28;20048;-64
2023/09/25 02:55:03;;;;;;;7.55;2.33;;;;;;;5.08;100.00;97934.81;5002793;28;20046;-64
2023/09/25 02:57:30;;;;;;;6.13;1.80;;;;;;;4.99;100.00;97935.19;4985428;28;20096;-65
2023/09/25 02:59:56;;;;;;;3.95;2.00;;;;;;;4.97;100.00;97934.59;5004132;28;20041;-64
2023/09/25 03:02:25;;;;;;;4.25;2.10;;;;;;;5.04;100.00;97930.88;5002198;28;20053;-63
2023/09/25 03:04:52;;;;;;;5.28;2.13;;;;;;;4.99;100.00;97929.81;5003424;28;20034;-65
2023/09/25 03:07:18;;;;;;;4.22;2.00;;;;;;;4.93;100.00;97936.81;5002769;28;20046;-63
2023/09/25 03:09:45;;;;;;;4.50;2.00;;;;;;;4.92;100.00;97924.44;4987151;28;20042;-65
2023/09/25 03:12:11;;;;;;;3.72;2.20;;;;;;;4.91;100.00;97931.66;4984030;28;20046;-63
2023/09/25 03:14:39;;;;;;;3.67;2.08;;;;;;;4.71;100.00;97923.53;5002340;28;20043;-63
2023/09/25 03:17:05;;;;;;;4.97;2.22;;;;;;;4.64;100.00;97922.69;5003800;28;20057;-64
2023/09/25 03:19:35;;;;;;;5.35;2.00;;;;;;;4.49;100.00;97926.34;5003064;28;20445;-65
2023/09/25 03:22:03;;;;;;;4.90;2.30;;;;;;;4.42;100.00;97925.47;5002943;28;20034;-64
2023/09/25 03:24:30;;;;;;;6.45;2.47;;;;;;;4.53;100.00;97927.59;4984866;28;20049;-64
2023/09/25 03:26:57;;;;;;;4.20;1.98;;;;;;;4.44;100.00;97931.47;5003768;28;20049;-63
2023/09/25 03:29:24;;;;;;;5.18;2.40;;;;;;;4.35;100.00;97932.66;5000826;28;20041;-63
2023/09/25 03:31:50;;;;;;;3.88;2.28;;;;;;;4.27;100.00;97929.09;4980794;28;20053;-64
2023/09/25 03:34:20;;;;;;;4.53;1.98;;;;;;;4.10;100.00;97933.97;5001435;28;20080;-64
2023/09/25 03:36:48;;;;;;;4.85;2.30;;;;;;;4.12;100.00;97925.69;4985970;28;20501;-62
2023/09/25 03:39:14;;;;;;;6.05;2.38;;;;;;;4.23;100.00;97935.06;4994849;28;20050;-64
2023/09/25 03:41:41;;;;;;;5.15;2.40;;;;;;;4.32;100.00;97936.56;5003401;28;20125;-64
2023/09/25 03:44:07;;;;;;;6.93;2.47;;;;;;;4.30;100.00;97927.88;5004887;28;20037;-65
2023/09/25 03:46:34;;;;;;;4.93;1.75;;;;;;;4.27;100.00;97930.94;4994904;28;20147;-64
2023/09/25 03:49:05;;;;;;;4.32;2.08;;;;;;;4.18;100.00;97927.63;5006921;28;20591;-64
2023/09/25 03:51:32;;;;;;;4.15;1.92;;;;;;;4.22;100.00;97928.88;5004776;28;20076;-63
2023/09/25 03:53:59;;;;;;;5.35;2.25;;;;;;;4.25;100.00;97933.84;5006569;28;20041;-65
2023/09/25 03:56:27;;;;;;;4.80;2.78;;;;;;;4.06;100.00;97926.50;5021131;28;20520;-63
2023/09/25 03:58:54;;;;;;;5.32;2.80;;;;;;;4.15;100.00;97941.41;4994071;28;20637;-65
2023/09/25 04:01:21;;;;;;;4.07;2.13;;;;;;;3.99;100.00;97935.34;4980575;28;20062;-63
2023/09/25 04:03:47;;;;;;;5.43;2.28;;;;;;;3.98;100.00;97944.38;5006645;28;20038;-64
2023/09/25 04:06:14;;;;;;;5.15;2.53;;;;;;;3.91;100.00;97946.19;5005905;28;20045;-64
2023/09/25 04:08:41;;;;;;;7.47;2.65;;;;;;;3.94;100.00;97950.34;5006685;28;20045;-64
2023/09/25 04:11:10;;;;;;;5.90;2.15;;;;;;;4.13;100.00;97955.00;5006190;28;20515;-65
2023/09/25 04:13:36;;;;;;;4.35;2.15;;;;;;;4.22;100.00;97949.47;5006495;28;20420;-64
2023/09/25 04:16:03;;;;;;;5.78;2.60;;;;;;;4.26;100.00;97948.06;5006555;28;20095;-64
2023/09/25 04:18:29;;;;;;;6.10;2.65;;;;;;;4.35;100.00;97943.38;5003854;28;20050;-63
2023/09/25 04:21:02;;;;;;;5.70;2.25;;;;;;;4.29;100.00;97943.16;5006193;28;20132;-64
2023/09/25 04:23:28;;;;;;;5.70;2.42;;;;;;;4.39;100.00;97944.66;5005079;28;20064;-64
2023/09/25 04:26:00;;;;;;;7.03;2.50;;;;;;;4.39;100.00;97945.47;5006369;28;20040;-65
2023/09/25 04:28:30;;;;;;;;;;;;;;;4.38;100.00;97946.50;5006090;28;20674;-63
2023/09/25 04:30:59;;;;;;;8.63;4.32;;;;;;;4.29;100.00;97945.84;5006232;28;20016;-64
2023/09/25 04:33:27;;;;;;;4.38;2.30;;;;;;;4.27;100.00;97947.03;5005041;28;20819;-64
2023/09/25 04:35:58;;;;;;;5.63;1.92;;;;;;;4.23;100.00;97943.94;5003090;28;20038;-65
2023/09/25 04:38:28;;;;;;;;;;;;;;;4.34;100.00;97944.38;5005398;28;20042;-64
2023/09/25 04:40:54;;;;;;;6.00;2.47;;;;;;;4.50;100.00;97941.38;5005881;28;19956;-65
2023/09/25 04:43:21;;;;;;;5.32;2.20;;;;;;;4.72;100.00;97933.22;5006130;28;20839;-63
2023/09/25 04:45:51;;;;;;;5.40;2.35;;;;;;;4.82;100.00;97939.06;5005408;28;20034;-65
2023/09/25 04:48:19;;;;;;;5.50;2.50;;;;;;;4.88;100.00;97945.50;5004671;28;20509;-63
2023/09/25 04:50:45;;;;;;;5.07;1.88;;;;;;;4.96;100.00;97941.78;5005473;28;20050;-65
2023/09/25 04:53:12;;;;;;;5.40;2.40;;;;;;;5.04;100.00;97938.09;5003626;28;20045;-64
2023/09/25 04:55:39;;;;;;;5.63;2.47;;;;;;;4.94;100.00;97933.13;5002156;28;20046;-64
2023/09/25 04:58:06;;;;;;;6.00;2.28;;;;;;;4.90;100.00;97935.38;5004593;28;20096;-64
2023/09/25 05:00:33;;;;;;;4.50;2.28;;;;;;;5.02;100.00;97940.16;5002270;28;20042;-63
2023/09/25 05:03:00;;;;;;;4.28;2.15;;;;;;;5.05;100.00;97943.25;5004692;28;20052;-64
2023/09/25 05:05:28;;;;;;;5.72;2.28;;;;;;;4.99;100.00;97946.78;5003913;28;20136;-64
2023/09/25 05:07:56;;;;;;;5.65;2.22;;;;;;;4.98;100.00;97944.28;5005568;28;20038;-64
2023/09/25 05:10:25;;;;;;;5.38;2.20;;;;;;;5.13;100.00;97946.81;5004084;28;20050;-63
2023/09/25 05:12:52;;;;;;;9.00;2.25;;;;;;;5.26;100.00;97948.69;5005290;28;20042;-63
2023/09/25 05:15:20;;;;;;;7.00;1.88;;;;;;;5.18;100.00;97944.34;5004445;28;20460;-64
2023/09/25 05:17:48;;;;;;;4.03;1.98;;;;;;;5.18;100.00;97942.50;5005520;28;20627;-62
2023/09/25 05:20:18;;;;;;;3.90;1.92;;;;;;;5.04;100.00;97938.94;5003435;28;20053;-63
2023/09/25 05:22:46;;;;;;;4.93;2.10;;;;;;;5.00;100.00;97940.38;5004571;28;20038;-63
2023/09/25 05:25:14;;;;;;;4.45;2.25;;;;;;;4.94;100.00;97947.34;5004247;28;20121;-63
2023/09/25 05:27:44;;;;;;;10.98;2.28;;;;;;;4.89;100.00;97941.78;5005368;28;20042;-63
2023/09/25 05:30:11;;;;;;;10.85;2.65;;;;;;;4.87;100.00;97938.44;5006338;28;20572;-63
2023/09/25 05:32:44;;;;;;;5.57;2.50;;;;;;;4.64;100.00;97936.94;5004738;28;20046;-61
2023/09/25 05:35:11;;;;;;;4.60;2.42;;;;;;;4.64;100.00;97939.59;5003682;28;20034;-63
2023/09/25 05:37:40;;;;;;;6.22;2.70;;;;;;;4.65;100.00;97941.25;5005311;28;20706;-62
2023/09/25 05:40:15;;;;;;;9.00;2.90;;;;;;;4.75;100.00;97948.94;5004806;28;20516;-63
2023/09/25 05:42:43;;;;;;;4.53;2.40;;;;;;;4.69;100.00;97945.19;5007105;28;20033;-63
2023/09/25 05:45:11;;;;;;;7.22;2.10;;;;;;;4.75;100.00;97945.44;5003934;28;20069;-61
2023/09/25 05:47:38;;;;;;;4.55;2.25;;;;;;;4.81;100.00;97944.63;5004730;28;20523;-62
2023/09/25 05:50:08;;;;;;;7.03;2.85;;;;;;;4.76;100.00;97942.53;5005957;28;20594;-62
2023/09/25 05:52:36;;;;;;;7.57;2.42;;;;;;;4.80;100.00;97943.78;5002998;28;20428;-63
2023/09/25 05:55:10;;;;;;;5.40;2.42;;;;;;;4.73;100.00;97942.97;5004703;28;20551;-63
2023/09/25 05:57:37;;;;;;;5.78;2.40;;;;;;;4.74;100.00;97946.44;4997962;28;20085;-63
2023/09/25 06:00:11;;;;;;;6.18;2.38;;;;;;;4.80;100.00;97951.03;5003245;28;20120;-63
2023/09/25 06:02:40;;;;;;;4.82;2.00;;;;;;;4.86;100.00;97947.53;5002548;28;20685;-63
2023/09/25 06:05:07;;;;;;;7.78;2.35;;;;;;;4.92;100.00;97941.38;5003325;28;20066;-63
2023/09/25 06:07:35;;;;;;;5.97;2.47;;;;;;;5.06;100.00;97947.59;5001867;28;20096;-63
2023/09/25 06:10:06;;;;;;;5.30;2.42;;;;;;;5.19;100.00;97935.25;5002875;28;20052;-63
2023/09/25 06:12:32;;;;;;;4.70;2.30;;;;;;;5.28;100.00;97935.88;5001343;28;20493;-62
2023/09/25 06:14:59;;;;;;;5.22;2.17;;;;;;;5.34;100.00;97930.53;5002984;28;20038;-63
2023/09/25 06:17:26;;;;;;;4.10;2.15;;;;;;;5.41;100.00;97924.31;5001691;28;20042;-63
2023/09/25 06:19:54;;;;;;;6.28;2.28;;;;;;;5.39;100.00;97929.09;5003782;28;20046;-63
2023/09/25 06:22:21;;;;;;;5.22;2.28;;;;;;;5.33;100.00;97942.31;5002659;28;20509;-62
2023/09/25 06:24:49;;;;;;;4.75;2.65;;;;;;;5.42;100.00;97934.88;5003434;28;20026;-63
2023/09/25 06:27:15;;;;;;;6.30;2.40;;;;;;;5.62;100.00;97939.44;5002990;28;20049;-62
2023/09/25 06:29:45;;;;;;;4.93;2.47;;;;;;;5.73;100.00;97941.53;5011752;28;20062;-62
2023/09/25 06:32:11;;;;;;;5.55;2.42;;;;;;;5.88;100.00;97942.34;5002080;28;20038;-62
2023/09/25 06:34:41;;;;;;;5.88;2.17;;;;;;;5.95;100.00;97951.22;5003639;28;20111;-62
2023/09/25 06:37:08;;;;;;;4.25;2.25;;;;;;;6.05;100.00;97945.47;5003299;28;20052;-62
2023/09/25 06:39:35;;;;;;;5.60;2.00;;;;;;;6.19;100.00;97944.41;5003224;28;20069;-62
2023/09/25 06:42:01;;;;;;;6.78;2.55;;;;;;;6.34;100.00;97954.94;5003395;28;20049;-62
2023/09/25 06:44:28;;;;;;;5.97;2.50;;;;;;;6.49;100.00;97951.19;5004829;28;20033;-62
2023/09/25 06:46:55;;;;;;;4.22;2.42;;;;;;;6.63;100.00;97944.72;5003691;28;20038;-63
2023/09/25 06:49:23;;;;;;;4.45;2.25;;;;;;;6.81;100.00;97951.28;5002092;28;20050;-63
2023/09/25 06:51:49;;;;;;;6.20;2.40;;;;;;;7.05;100.00;97948.06;5003629;28;20042;-62
2023/09/25 06:54:17;;;;;;;5.80;2.03;;;;;;;7.22;100.00;97946.53;5002563;28;20125;-63
2023/09/25 06:56:44;;;;;;;4.38;2.20;;;;;;;7.43;100.00;97944.53;5003628;28;20053;-63
2023/09/25 06:59:10;;;;;;;4.15;2.00;;;;;;;7.62;100.00;97945.44;5002151;28;20239;-63
2023/09/25 07:01:37;;;;;;;5.43;2.50;;;;;;;7.79;100.00;97945.75;4998861;28;20050;-63
2023/09/25 07:04:04;;;;;;;8.73;2.30;;;;;;;7.93;100.00;97945.63;5003613;28;20046;-63
2023/09/25 07:06:33;;;;;;;5.28;2.20;;;;;;;8.05;100.00;97943.03;5002975;28;20092;-62
2023/09/25 07:08:59;;;;;;;5.68;2.28;;;;;;;8.20;100.00;97948.91;5003332;28;20044;-62
2023/09/25 07:11:26;;;;;;;4.65;2.05;;;;;;;8.31;100.00;97941.13;5002579;28;20112;-63
2023/09/25 07:13:53;;;;;;;4.68;1.90;;;;;;;8.45;100.00;97941.81;5002329;28;20112;-62
2023/09/25 07:16:19;;;;;;;4.68;2.08;;;;;;;8.63;100.00;97942.91;5002556;28;20046;-62
2023/09/25 07:18:47;;;;;;;4.38;1.80;;;;;;;8.78;100.00;97939.81;4982727;28;20042;-63
2023/09/25 07:21:15;;;;;;;5.15;2.00;;;;;;;8.93;100.00;97942.13;4979523;28;20120;-63
2023/09/25 07:23:42;;;;;;;3.72;1.92;;;;;;;9.06;100.00;97941.13;5007304;28;20042;-63
2023/09/25 07:26:09;;;;;;;5.28;1.58;;;;;;;9.21;100.00;97946.13;5006861;28;20033;-63
2023/09/25 07:28:36;;;;;;;5.93;2.33;;;;;;;9.33;100.00;97938.88;5006988;28;20048;-63
2023/09/25 07:31:04;;;;;;;3.83;1.75;;;;;;;9.45;100.00;97943.50;5006914;28;20042;-63
2023/09/25 07:33:31;;;;;;;4.32;2.05;;;;;;;9.56;100.00;97940.03;5006130;28;20056;-63
2023/09/25 07:35:58;;;;;;;4.03;1.50;;;;;;;9.69;100.00;97949.00;5007128;28;20034;-63
2023/09/25 07:38:28;;;;;;;3.80;1.77;;;;;;;9.80;100.00;97940.06;5005644;28;20042;-63
2023/09/25 07:40:55;;;;;;;4.32;2.03;;;;;;;9.96;100.00;97943.13;5006971;28;20045;-64
2023/09/25 07:43:29;;;;;;;5.65;2.15;;;;;;;10.23;100.00;97945.38;5008141;28;20041;-62
2023/09/25 07:46:12;;;;;;;5.32;2.35;;;;;;;10.45;100.00;97948.34;5005793;28;20053;-63
2023/09/25 07:48:39;;;;;;;6.55;1.85;;;;;;;10.67;100.00;97947.72;5007084;28;20061;-63
2023/09/25 07:51:07;;;;;;;4.65;1.80;;;;;;;10.89;99.62;97953.34;5006587;28;20119;-63
2023/09/25 07:53:34;;;;;;;5.55;1.80;;;;;;;11.17;97.67;97949.00;5005584;28;20048;-63
2023/09/25 07:56:01;;;;;;;3.58;1.88;;;;;;;11.38;95.56;97943.97;5006565;28;20196;-64
2023/09/25 07:58:27;;;;;;;4.80;1.80;;;;;;;11.48;94.69;97947.91;5005569;28;20058;-63
2023/09/25 08:01:00;;;;;;;6.28;1.77;;;;;;;11.68;93.47;97959.13;5006442;28;20041;-63
2023/09/25 08:03:27;;;;;;;4.22;1.45;;;;;;;11.86;92.91;97961.88;5004897;28;20052;-63
2023/09/25 08:05:54;;;;;;;5.03;1.90;;;;;;;12.00;93.29;97959.63;5006610;28;20033;-63
2023/09/25 08:08:20;;;;;;;4.95;1.85;;;;;;;12.06;91.28;97956.00;5005291;28;20045;-63
2023/09/25 08:10:47;;;;;;;3.47;1.30;;;;;;;12.30;90.85;97956.63;5006439;28;20141;-62
2023/09/25 08:13:15;;;;;;;3.75;1.60;;;;;;;12.35;89.51;97962.13;5005131;28;20048;-63
2023/09/25 08:15:42;;;;;;;5.45;1.70;;;;;;;12.48;88.84;97965.56;5006281;28;20701;-63
2023/09/25 08:18:08;;;;;;;4.40;1.58;;;;;;;12.55;85.53;97965.38;5005871;28;20066;-63
2023/09/25 08:20:35;;;;;;;3.60;1.50;;;;;;;12.66;85.80;97964.47;5005555;28;20040;-64
2023/09/25 08:23:02;;;;;;;8.75;1.70;;;;;;;12.82;84.04;97973.63;5001677;28;20049;-63
2023/09/25 08:25:30;;;;;;;4.90;1.70;;;;;;;12.85;84.23;97975.03;5005292;28;20091;-64
2023/09/25 08:27:56;;;;;;;3.80;1.58;;;;;;;12.99;82.68;97978.19;5005759;28;20053;-63
2023/09/25 08:30:23;;;;;;;3.35;1.30;;;;;;;13.02;83.09;97977.69;5004548;28;20437;-63
2023/09/25 08:32:50;;;;;;;3.85;1.52;;;;;;;13.04;82.20;97980.16;5004317;28;20137;-63
2023/09/25 08:35:17;;;;;;;3.38;1.48;;;;;;;13.12;83.69;97977.81;5005053;28;20038;-63
2023/09/25 08:37:43;;;;;;;6.45;2.00;;;;;;;13.16;82.58;97980.03;5005839;28;20056;-63
2023/09/25 08:40:10;;;;;;;3.80;1.35;;;;;;;13.17;81.92;97978.94;5005384;28;20619;-63
2023/09/25 08:42:37;;;;;;;4.80;1.50;;;;;;;13.27;82.00;97985.31;5008263;28;20037;-63
2023/09/25 08:45:05;;;;;;;4.43;1.67;;;;;;;13.40;80.96;97980.56;5005848;28;20052;-62
2023/09/25 08:47:34;;;;;;;4.15;1.67;;;;;;;13.52;80.66;97980.44;5004686;28;20056;-63
2023/09/25 08:50:02;;;;;;;4.47;1.35;;;;;;;13.58;77.94;97974.00;5005263;28;20042;-63
2023/09/25 08:52:31;;;;;;;4.70;1.77;;;;;;;13.74;79.17;97974.94;5004052;28;20077;-63
2023/09/25 08:54:59;;;;;;;6.03;1.92;;;;;;;13.75;78.41;97981.22;5004888;28;20030;-63
2023/09/25 08:57:26;;;;;;;5.88;1.50;;;;;;;13.86;75.65;97974.78;5004515;28;20068;-64
2023/09/25 08:59:53;;;;;;;4.47;1.65;;;;;;;13.87;75.08;97970.16;5005475;28;20429;-63
2023/09/25 09:02:20;;;;;;;7.00;1.75;;;;;;;13.83;74.99;97972.59;5003932;28;20041;-63
2023/09/25 09:04:47;;;;;;;4.88;1.70;;;;;;;13.90;75.04;97978.63;5009656;28;20125;-63
2023/09/25 09:07:16;;;;;;;5.35;1.33;;;;;;;13.90;74.56;97981.34;5006975;28;20042;-63
2023/09/25 09:09:43;;;;;;;4.88;1.80;;;;;;;13.92;75.46;97975.66;5004516;28;20042;-63
2023/09/25 09:12:11;;;;;;;4.80;1.63;;;;;;;14.01;75.53;97976.81;5004339;28;20092;-63
2023/09/25 09:14:42;;;;;;;5.13;1.45;;;;;;;14.10;75.50;97989.94;5004812;28;20053;-63
2023/09/25 09:17:11;;;;;;;5.07;1.67;;;;;;;14.17;74.61;97974.22;5004308;28;20067;-64
2023/09/25 09:19:44;;;;;;;4.50;1.55;;;;;;;14.24;74.30;97983.00;5003283;28;20046;-63
2023/09/25 09:22:11;;;;;;;3.25;1.30;;;;;;;14.25;73.16;97984.63;5004300;28;20169;-63
2023/09/25 09:24:38;;;;;;;5.15;1.60;;;;;;;14.40;75.17;97977.63;5004702;28;20046;-63
2023/09/25 09:27:09;;;;;;;4.72;1.50;;;;;;;14.54;74.48;97978.84;5005041;28;20050;-63
2023/09/25 09:29:41;;;;;;;4.95;1.80;;;;;;;14.54;72.45;97978.84;5003787;28;20506;-64
2023/09/25 09:32:09;;;;;;;4.15;1.88;;;;;;;14.59;73.11;97966.34;5004289;28;20054;-63
2023/09/25 09:34:39;;;;;;;6.90;2.25;;;;;;;14.69;73.59;97969.09;5004126;28;20038;-63
2023/09/25 09:37:09;;;;;;;3.97;1.60;;;;;;;14.78;73.65;97962.09;5004724;28;20084;-63
2023/09/25 09:39:37;;;;;;;2.88;1.48;;;;;;;14.86;72.80;97958.06;5004134;28;20034;-63
2023/09/25 09:42:05;;;;;;;7.30;1.60;;;;;;;14.89;71.64;97965.69;5003818;28;20046;-63
2023/09/25 09:44:32;;;;;;;4.00;1.60;;;;;;;14.87;71.43;97958.84;5005450;28;20041;-62
2023/09/25 09:47:07;;;;;;;4.13;1.60;;;;;;;14.88;71.56;97957.75;5004279;28;20052;-63
2023/09/25 09:49:39;;;;;;;9.15;1.75;;;;;;;14.96;72.26;97959.97;5003528;28;20420;-63
2023/09/25 09:52:06;;;;;;;4.68;2.15;;;;;;;14.97;72.32;97963.53;5004090;28;20045;-63
2023/09/25 09:54:42;;;;;;;4.13;1.58;;;;;;;15.01;70.94;97961.91;5003057;28;20054;-64
2023/09/25 09:57:10;;;;;;;6.07;1.65;;;;;;;15.12;72.29;97954.59;5004485;28;20042;-63
2023/09/25 09:59:37;;;;;;;3.95;1.98;;;;;;;15.20;71.22;97959.53;5003632;28;20048;-63
2023/09/25 10:02:04;;;;;;;4.82;1.55;;;;;;;15.37;71.85;97961.22;5004057;28;20099;-63
2023/09/25 10:04:32;;;;;;;7.53;1.85;;;;;;;15.44;70.84;97964.53;5003417;28;20045;-63
2023/09/25 10:07:04;;;;;;;7.95;2.22;;;;;;;15.41;70.14;97968.59;5004115;28;20042;-64
2023/09/25 10:09:31;;;;;;;4.80;1.63;;;;;;;15.39;70.84;97959.03;5003060;28;20045;-63
2023/09/25 10:12:01;;;;;;;3.70;1.63;;;;;;;15.34;69.97;97965.31;5003956;28;20034;-64
2023/09/25 10:14:30;;;;;;;5.63;2.30;;;;;;;15.39;70.66;97964.50;5003085;28;20065;-63
2023/09/25 10:17:02;;;;;;;3.60;1.73;;;;;;;15.43;71.13;97960.97;5004274;28;20037;-63
2023/09/25 10:19:35;;;;;;;6.15;2.25;;;;;;;15.55;71.07;97957.19;5002718;28;20486;-63
2023/09/25 10:22:12;;;;;;;4.43;2.10;;;;;;;15.73;69.84;97956.66;5007270;28;20603;-63
2023/09/25 10:24:41;;;;;;;4.90;2.65;;;;;;;15.77;69.45;97948.72;5004157;28;20041;-63
2023/09/25 10:27:13;;;;;;;4.90;1.63;;;;;;;15.86;69.27;97949.81;5004141;28;20041;-63
2023/09/25 10:29:59;;;;;;;3.35;1.73;;;;;;;15.93;69.80;97940.53;5000537;28;20038;-63
2023/09/25 10:32:35;;;;;;;5.55;1.98;;;;;;;15.94;68.56;97948.50;5002401;28;20056;-62
2023/09/25 10:35:37;;;;;;;3.88;1.92;;;;;;;15.97;68.50;97949.88;5003331;28;20042;-63
2023/09/25 10:38:31;;;;;;;5.10;1.92;;;;;;;16.08;67.90;97946.06;5002636;28;20069;-64
2023/09/25 10:41:05;;;;;;;5.97;2.13;;;;;;;16.10;67.72;97945.75;5002152;28;20058;-63
2023/09/25 10:43:33;;;;;;;8.05;2.00;;;;;;;16.11;68.65;97941.94;5005255;28;20064;-63
2023/09/25 10:46:01;;;;;;;6.00;2.95;;;;;;;16.26;68.21;97946.56;5003919;28;20034;-63
2023/09/25 10:48:28;;;;;;;4.05;1.77;;;;;;;16.24;68.33;97946.00;5001392;28;20559;-63
2023/09/25 10:50:55;;;;;;;5.93;2.08;;;;;;;16.31;67.66;97948.47;5003371;28;20070;-63
2023/09/25 10:53:22;;;;;;;3.72;1.55;;;;;;;16.45;66.87;97941.34;5002651;28;20398;-63
2023/09/25 10:55:49;;;;;;;4.13;2.25;;;;;;;16.52;66.82;97941.06;5003069;28;20041;-63
2023/09/25 10:58:17;;;;;;;3.07;1.70;;;;;;;16.53;65.94;97942.69;5005517;28;20050;-62
2023/09/25 11:00:47;;;;;;;3.80;1.83;;;;;;;16.47;65.55;97936.41;5007549;28;20365;-63
2023/09/25 11:03:14;;;;;;;3.78;1.88;;;;;;;16.40;66.56;97930.41;5006277;28;20045;-63
2023/09/25 11:05:43;;;;;;;7.93;2.28;;;;;;;16.44;65.47;97933.44;5007664;28;20045;-63
2023/09/25 11:08:10;;;;;;;4.30;1.42;;;;;;;16.52;65.29;97930.94;5006807;28;20042;-63
2023/09/25 11:10:37;;;;;;;4.18;1.70;;;;;;;16.67;65.65;97931.16;5006602;28;20050;-63
2023/09/25 11:13:04;;;;;;;5.82;1.70;;;;;;;16.75;64.03;97933.34;5007264;28;20033;-63
2023/09/25 11:15:36;;;;;;;3.65;1.80;;;;;;;16.84;63.17;97937.13;5006075;28;20500;-63
2023/09/25 11:18:06;;;;;;;3.85;1.70;;;;;;;17.00;62.47;97937.06;5006727;28;20515;-63
2023/09/25 11:20:33;;;;;;;5.60;2.13;;;;;;;17.08;62.55;97942.00;5006055;28;20053;-63
2023/09/25 11:23:10;;;;;;;4.93;1.88;;;;;;;17.12;62.38;97937.59;5007297;28;20045;-62
2023/09/25 11:25:43;;;;;;;5.10;1.80;;;;;;;17.18;62.55;97935.66;4999520;28;20633;-63
2023/09/25 11:28:18;;;;;;;4.53;1.65;;;;;;;17.27;61.82;97935.88;5007064;28;20149;-62
2023/09/25 11:30:48;;;;;;;4.22;1.92;;;;;;;17.34;62.50;97932.81;5000090;28;20133;-63
2023/09/25 11:33:18;;;;;;;5.13;2.08;;;;;;;17.58;62.61;97932.13;5005625;28;20052;-64
2023/09/25 11:35:47;;;;;;;4.88;2.05;;;;;;;17.58;61.86;97932.13;5007384;28;20476;-62
2023/09/25 11:38:21;;;;;;;3.92;1.67;;;;;;;17.71;60.02;97936.97;5006350;28;20045;-63